Time;durP1;ratioP1;P1;durP2;ratioP2;P2;SDS_P1;SDS_P2;PMS_P1;PMS_P2;Temp;Humidity;BMP_temperature;BMP_pressure;BME280_temperature;BME280_humidity;BME280_pressure;Samples;Min_cycle;Max_cycle;Signal;HPM_P1;HPM_P2
2021/07/13 00:00:16;;;;;;;2.10;1.90;;;20.70;85.50;;;;;;5090447;28;20043;-68
2021/07/13 00:02:42;;;;;;;6.22;2.03;;;20.80;85.50;;;;;;5090396;28;20062;-66
2021/07/13 00:05:15;;;;;;;2.20;2.00;;;20.80;85.30;;;;;;5088432;28;20052;-69
2021/07/13 00:07:42;;;;;;;6.07;2.20;;;20.70;85.30;;;;;;5089014;28;20032;-68
2021/07/13 00:10:10;;;;;;;4.40;2.00;;;20.70;85.20;;;;;;5072432;28;20394;-68
2021/07/13 00:12:36;;;;;;;2.33;2.22;;;20.60;85.20;;;;;;5090442;28;20107;-68
2021/07/13 00:15:30;;;;;;;3.85;1.95;;;20.60;85.30;;;;;;5071346;28;20020;-66
2021/07/13 00:17:57;;;;;;;4.63;1.95;;;20.60;85.60;;;;;;5090249;28;20028;-68
2021/07/13 00:20:23;;;;;;;2.13;1.83;;;20.60;85.30;;;;;;5072048;28;20483;-67
2021/07/13 00:22:49;;;;;;;3.42;2.30;;;20.50;85.40;;;;;;5089977;28;20039;-66
2021/07/13 00:25:16;;;;;;;5.22;2.00;;;20.40;85.50;;;;;;5087972;28;20099;-66
2021/07/13 00:27:42;;;;;;;4.25;2.15;;;20.40;85.90;;;;;;5086117;28;20016;-68
2021/07/13 00:30:10;;;;;;;4.30;2.70;;;20.40;86.10;;;;;;5070137;28;20016;-68
2021/07/13 00:32:36;;;;;;;3.55;2.47;;;20.30;86.00;;;;;;5083459;28;20388;-68
2021/07/13 00:35:02;;;;;;;2.30;2.10;;;20.20;86.10;;;;;;5089369;28;20016;-67
2021/07/13 00:37:27;;;;;;;2.72;2.40;;;20.20;86.50;;;;;;5090100;28;20099;-67
2021/07/13 00:39:53;;;;;;;3.38;2.55;;;20.20;86.70;;;;;;5090427;28;20032;-66
2021/07/13 00:42:18;;;;;;;2.75;2.33;;;20.10;87.00;;;;;;5071699;28;20100;-68
2021/07/13 00:44:45;;;;;;;2.50;2.30;;;20.20;87.20;;;;;;5071217;28;20052;-68
2021/07/13 00:47:12;;;;;;;2.25;2.05;;;20.10;87.30;;;;;;5090243;28;20028;-67
2021/07/13 00:49:39;;;;;;;4.47;2.50;;;20.20;87.40;;;;;;5089464;28;20024;-68
2021/07/13 00:52:06;;;;;;;2.90;2.70;;;20.20;87.50;;;;;;5093648;28;20024;-68
2021/07/13 00:54:36;;;;;;;3.55;3.25;;;20.20;87.80;;;;;;5093300;28;20047;-68
2021/07/13 00:57:07;;;;;;;4.13;3.50;;;20.10;88.00;;;;;;5091993;28;20024;-68
2021/07/13 00:59:33;;;;;;;5.72;4.10;;;20.10;88.10;;;;;;5076079;28;20376;-68
2021/07/13 01:01:59;;;;;;;5.72;3.80;;;20.10;88.20;;;;;;5093452;28;20030;-68
2021/07/13 01:04:24;;;;;;;4.47;4.03;;;20.10;88.50;;;;;;5092933;28;20034;-68
2021/07/13 01:07:13;;;;;;;7.25;4.85;;;20.00;88.70;;;;;;5091501;28;20036;-69
2021/07/13 01:10:03;;;;;;;6.38;4.18;;;20.00;89.20;;;;;;5093410;28;20024;-69
2021/07/13 01:12:47;;;;;;;5.35;3.90;;;20.00;89.40;;;;;;5093697;28;20024;-68
2021/07/13 01:15:18;;;;;;;4.65;4.03;;;19.90;89.40;;;;;;5077083;28;20020;-68
2021/07/13 01:17:54;;;;;;;6.03;4.20;;;20.00;89.80;;;;;;5074276;28;20046;-67
2021/07/13 01:20:53;;;;;;;4.53;3.58;;;20.00;90.00;;;;;;5073885;28;20038;-66
2021/07/13 01:23:28;;;;;;;5.70;3.80;;;20.00;90.10;;;;;;5092551;28;20074;-69
2021/07/13 01:26:05;;;;;;;5.07;3.80;;;20.00;90.00;;;;;;5091783;28;20031;-68
2021/07/13 01:28:36;;;;;;;4.07;3.50;;;19.90;90.00;;;;;;5092397;28;20107;-67
2021/07/13 01:31:05;;;;;;;4.03;3.63;;;19.90;90.20;;;;;;5092159;28;20069;-67
2021/07/13 01:33:32;;;;;;;4.30;3.40;;;19.90;90.10;;;;;;5092363;28;20028;-68
2021/07/13 01:36:26;;;;;;;5.00;3.47;;;19.90;90.50;;;;;;5091513;28;20103;-68
2021/07/13 01:38:54;;;;;;;3.65;3.35;;;19.90;90.40;;;;;;5089694;28;20085;-68
2021/07/13 01:41:23;;;;;;;4.05;3.05;;;19.90;90.30;;;;;;5092955;28;20074;-68
2021/07/13 01:43:49;;;;;;;5.00;3.30;;;19.90;90.40;;;;;;5093164;28;20069;-65
2021/07/13 01:46:16;;;;;;;4.13;3.60;;;19.90;90.40;;;;;;5091426;28;20503;-68
2021/07/13 01:48:44;;;;;;;4.10;3.15;;;19.90;90.30;;;;;;5074145;28;20162;-65
2021/07/13 01:51:10;;;;;;;4.68;3.80;;;19.80;90.40;;;;;;5092378;28;20516;-68
2021/07/13 01:53:37;;;;;;;4.95;3.42;;;19.80;90.40;;;;;;5092059;28;20077;-67
2021/07/13 01:56:04;;;;;;;4.07;3.58;;;19.70;90.50;;;;;;5090760;28;20028;-66
2021/07/13 01:58:31;;;;;;;4.78;3.47;;;19.70;90.60;;;;;;5074355;28;20040;-68
2021/07/13 02:01:00;;;;;;;4.75;4.32;;;19.70;90.70;;;;;;5092220;28;20030;-69
2021/07/13 02:03:27;;;;;;;5.30;4.20;;;19.70;90.70;;;;;;5092575;28;20344;-68
2021/07/13 02:05:56;;;;;;;6.70;4.43;;;19.60;90.80;;;;;;5070806;28;20028;-67
2021/07/13 02:08:22;;;;;;;4.38;3.70;;;19.60;90.80;;;;;;5092288;28;20021;-67
2021/07/13 02:10:49;;;;;;;5.70;4.55;;;19.60;90.90;;;;;;5092542;28;20027;-68
2021/07/13 02:13:18;;;;;;;5.38;4.30;;;19.60;90.90;;;;;;5092253;28;20353;-68
2021/07/13 02:15:45;;;;;;;5.80;4.30;;;19.50;90.90;;;;;;5090336;28;20384;-68
2021/07/13 02:18:11;;;;;;;6.10;3.95;;;19.50;91.10;;;;;;5054759;28;20154;-67
2021/07/13 02:20:37;;;;;;;4.78;4.10;;;19.40;91.00;;;;;;5057475;28;20036;-68
2021/07/13 02:23:04;;;;;;;7.07;4.30;;;19.40;91.10;;;;;;5073767;28;20476;-65
2021/07/13 02:25:30;;;;;;;5.53;4.38;;;19.40;91.20;;;;;;5091389;28;20032;-66
2021/07/13 02:28:10;;;;;;;4.95;3.78;;;19.40;91.30;;;;;;5090422;28;20043;-65
2021/07/13 02:30:39;;;;;;;5.15;4.05;;;19.40;91.40;;;;;;5086226;28;20500;-66
2021/07/13 02:33:18;;;;;;;7.15;4.35;;;19.30;91.30;;;;;;5073720;28;20032;-65
2021/07/13 02:35:55;;;;;;;5.70;4.10;;;19.30;91.40;;;;;;5080787;28;20031;-68
2021/07/13 02:38:21;;;;;;;7.65;3.63;;;19.30;91.50;;;;;;5091324;28;20130;-65
2021/07/13 02:40:48;;;;;;;3.92;3.50;;;19.30;91.40;;;;;;5091923;28;20503;-65
2021/07/13 02:43:14;;;;;;;6.85;3.78;;;19.20;91.50;;;;;;5090720;28;20032;-65
2021/07/13 02:45:41;;;;;;;5.07;3.78;;;19.20;91.50;;;;;;5089786;28;20031;-70
2021/07/13 02:48:09;;;;;;;4.57;3.58;;;19.20;91.60;;;;;;5075819;28;20021;-65
2021/07/13 02:50:36;;;;;;;4.93;3.40;;;19.20;91.70;;;;;;5091202;28;20024;-65
2021/07/13 02:53:03;;;;;;;5.90;3.60;;;19.20;91.70;;;;;;5094714;28;20039;-66
2021/07/13 02:55:31;;;;;;;3.60;3.22;;;19.20;91.70;;;;;;5071761;28;20016;-68
2021/07/13 02:57:57;;;;;;;5.50;4.00;;;19.20;91.80;;;;;;5091297;28;20035;-67
2021/07/13 03:00:23;;;;;;;5.00;3.47;;;19.20;91.70;;;;;;5090910;28;20020;-68
2021/07/13 03:02:50;;;;;;;4.90;3.58;;;19.10;91.70;;;;;;5091611;28;20082;-68
2021/07/13 03:05:18;;;;;;;6.43;3.30;;;19.10;91.70;;;;;;5089458;28;20020;-66
2021/07/13 03:07:46;;;;;;;3.67;3.20;;;19.00;91.90;;;;;;5090750;28;20019;-65
2021/07/13 03:10:12;;;;;;;4.43;3.33;;;19.00;91.90;;;;;;5090566;28;20032;-65
2021/07/13 03:12:38;;;;;;;5.60;3.33;;;19.00;91.90;;;;;;5091276;28;20023;-65
2021/07/13 03:15:05;;;;;;;4.70;3.10;;;19.00;91.90;;;;;;5090289;28;20028;-65
2021/07/13 03:17:31;;;;;;;5.25;2.72;;;18.90;92.00;;;;;;5090236;28;20039;-66
2021/07/13 03:19:57;;;;;;;3.97;3.30;;;18.90;92.00;;;;;;5091115;28;20396;-69
2021/07/13 03:22:33;;;;;;;3.45;2.83;;;18.80;92.00;;;;;;5090165;28;20085;-69
2021/07/13 03:25:00;;;;;;;3.67;2.80;;;18.90;92.30;;;;;;5087914;28;20743;-69
2021/07/13 03:27:28;;;;;;;5.07;2.78;;;18.80;92.20;;;;;;5088670;28;20027;-66
2021/07/13 03:29:56;;;;;;;3.13;2.42;;;18.90;92.30;;;;;;5090886;28;20020;-67
2021/07/13 03:32:22;;;;;;;2.85;2.45;;;18.90;92.30;;;;;;5090585;28;20043;-65
2021/07/13 03:34:48;;;;;;;4.82;2.83;;;19.00;92.30;;;;;;5089211;28;20048;-65
2021/07/13 03:37:15;;;;;;;2.92;2.60;;;18.90;92.30;;;;;;5090219;28;20069;-66
2021/07/13 03:39:41;;;;;;;3.35;2.85;;;19.00;92.40;;;;;;5090770;28;20422;-65
2021/07/13 03:42:07;;;;;;;4.47;2.92;;;19.00;92.40;;;;;;5071851;28;20035;-65
2021/07/13 03:44:34;;;;;;;4.50;2.95;;;19.00;92.40;;;;;;5072348;28;20024;-65
2021/07/13 03:46:59;;;;;;;3.28;2.97;;;19.00;92.40;;;;;;5087200;28;20046;-65
2021/07/13 03:49:26;;;;;;;3.65;2.53;;;19.00;92.40;;;;;;5080484;28;20484;-65
2021/07/13 03:51:52;;;;;;;4.32;2.92;;;19.10;92.50;;;;;;5090010;28;20110;-68
2021/07/13 03:54:20;;;;;;;5.13;2.80;;;19.10;92.40;;;;;;5093337;28;20161;-65
2021/07/13 03:56:49;;;;;;;3.20;2.90;;;19.10;92.40;;;;;;5089084;28;20054;-66
2021/07/13 03:59:16;;;;;;;3.40;2.85;;;19.10;92.50;;;;;;5090815;28;20214;-65
2021/07/13 04:01:42;;;;;;;5.63;3.15;;;19.10;92.50;;;;;;5072057;28;20047;-69
2021/07/13 04:04:08;;;;;;;4.68;3.00;;;19.10;92.40;;;;;;5089960;28;20032;-66
2021/07/13 04:06:34;;;;;;;3.75;2.97;;;19.10;92.50;;;;;;5089125;28;20388;-66
2021/07/13 04:09:01;;;;;;;5.63;3.25;;;19.10;92.70;;;;;;5090140;28;20411;-66
2021/07/13 04:11:26;;;;;;;6.45;3.22;;;19.10;92.50;;;;;;5090810;28;20402;-67
2021/07/13 04:13:52;;;;;;;3.53;3.08;;;19.10;92.50;;;;;;5090684;28;20032;-70
2021/07/13 04:16:18;;;;;;;5.78;3.40;;;19.10;92.50;;;;;;5088422;28;20040;-66
2021/07/13 04:18:43;;;;;;;3.15;2.85;;;19.10;92.60;;;;;;5090296;28;20388;-66
2021/07/13 04:21:09;;;;;;;4.63;3.20;;;19.10;92.60;;;;;;5090951;28;20032;-67
2021/07/13 04:23:35;;;;;;;4.15;3.50;;;19.10;92.70;;;;;;5094063;28;20052;-68
2021/07/13 04:26:02;;;;;;;4.10;3.40;;;19.20;92.70;;;;;;5092835;28;20484;-67
2021/07/13 04:28:31;;;;;;;4.72;3.20;;;19.20;92.70;;;;;;5090394;28;20528;-66
2021/07/13 04:31:00;;;;;;;5.15;3.25;;;19.10;92.60;;;;;;5093832;28;20058;-66
2021/07/13 04:33:26;;;;;;;3.65;3.33;;;19.20;92.70;;;;;;5076383;28;20016;-67
2021/07/13 04:35:52;;;;;;;5.85;3.15;;;19.20;92.80;;;;;;5091606;28;20055;-66
2021/07/13 04:38:19;;;;;;;3.05;2.75;;;19.20;92.70;;;;;;5093073;28;20426;-65
2021/07/13 04:40:45;;;;;;;6.07;3.38;;;19.20;92.70;;;;;;5094748;28;20077;-67
2021/07/13 04:43:10;;;;;;;3.92;3.25;;;19.20;92.70;;;;;;5075801;28;20032;-65
2021/07/13 04:45:36;;;;;;;5.00;3.35;;;19.20;92.80;;;;;;5092701;28;20032;-66
2021/07/13 04:48:02;;;;;;;4.47;3.42;;;19.20;92.80;;;;;;5092820;28;20032;-66
2021/07/13 04:50:28;;;;;;;5.50;3.85;;;19.20;92.80;;;;;;5088847;28;20024;-67
2021/07/13 04:52:54;;;;;;;6.50;3.08;;;19.20;92.80;;;;;;5093800;28;20031;-67
2021/07/13 04:55:20;;;;;;;3.15;2.85;;;19.20;92.80;;;;;;5091817;28;20042;-67
2021/07/13 04:57:46;;;;;;;4.63;2.90;;;19.20;92.90;;;;;;5094464;28;20477;-68
2021/07/13 05:00:13;;;;;;;4.05;3.30;;;19.20;92.80;;;;;;5093690;28;20442;-67
2021/07/13 05:02:40;;;;;;;3.90;3.08;;;19.20;92.80;;;;;;5094066;28;20028;-67
2021/07/13 05:05:08;;;;;;;4.82;3.60;;;19.20;92.80;;;;;;5091774;28;20031;-66
2021/07/13 05:07:41;;;;;;;5.82;3.67;;;19.30;92.80;;;;;;5093637;28;20112;-69
2021/07/13 05:10:07;;;;;;;4.78;3.65;;;19.30;92.80;;;;;;5091000;28;20028;-67
2021/07/13 05:12:33;;;;;;;5.85;3.78;;;19.20;92.80;;;;;;5094256;28;20054;-66
2021/07/13 05:14:59;;;;;;;4.65;3.67;;;19.20;92.80;;;;;;5091307;28;20051;-67
2021/07/13 05:17:24;;;;;;;3.97;3.58;;;19.20;92.80;;;;;;5093771;28;20028;-67
2021/07/13 05:19:50;;;;;;;4.32;3.92;;;19.20;92.90;;;;;;5093146;28;20082;-66
2021/07/13 05:22:16;;;;;;;4.80;4.30;;;19.20;92.90;;;;;;5091480;28;20532;-70
2021/07/13 05:24:41;;;;;;;4.40;4.00;;;19.30;93.00;;;;;;5091785;28;20020;-67
2021/07/13 05:27:11;;;;;;;5.35;4.18;;;19.30;93.00;;;;;;5091016;28;20063;-66
2021/07/13 05:29:38;;;;;;;5.10;4.53;;;19.30;93.00;;;;;;5087684;28;20047;-67
2021/07/13 05:32:04;;;;;;;6.63;4.97;;;19.30;93.20;;;;;;5091819;28;20107;-67
2021/07/13 05:34:30;;;;;;;5.22;4.60;;;19.30;92.90;;;;;;5091565;28;20056;-69
2021/07/13 05:36:55;;;;;;;6.65;4.80;;;19.40;92.90;;;;;;5073612;28;20119;-67
2021/07/13 05:39:21;;;;;;;5.65;4.28;;;19.40;92.90;;;;;;5093137;28;20024;-67
2021/07/13 05:41:46;;;;;;;5.30;4.68;;;19.40;92.90;;;;;;5093202;28;20043;-67
2021/07/13 05:44:12;;;;;;;5.68;4.43;;;19.50;93.10;;;;;;5092488;28;20133;-66
2021/07/13 05:46:37;;;;;;;5.22;4.70;;;19.60;92.90;;;;;;5091513;28;20110;-67
2021/07/13 05:49:03;;;;;;;9.10;5.28;;;19.60;92.90;;;;;;5092785;28;20145;-68
2021/07/13 05:51:29;;;;;;;5.65;5.03;;;19.70;92.80;;;;;;5073585;28;20115;-69
2021/07/13 05:53:55;;;;;;;5.15;4.65;;;19.70;92.80;;;;;;5093087;28;20016;-67
2021/07/13 05:56:21;;;;;;;8.00;4.70;;;19.80;92.70;;;;;;5089975;28;20550;-66
2021/07/13 05:58:47;;;;;;;7.85;4.70;;;19.80;92.70;;;;;;5074297;28;20032;-67
2021/07/13 06:01:12;;;;;;;5.32;4.70;;;19.80;92.70;;;;;;5072006;28;20032;-67
2021/07/13 06:03:38;;;;;;;6.07;4.53;;;19.80;92.60;;;;;;5073220;28;20046;-67
2021/07/13 06:06:03;;;;;;;6.30;5.07;;;19.80;92.60;;;;;;5087825;28;20418;-69
2021/07/13 06:08:29;;;;;;;5.93;4.72;;;19.90;92.50;;;;;;5075168;28;20016;-67
2021/07/13 06:10:54;;;;;;;4.38;3.97;;;19.90;92.50;;;;;;5092747;28;20046;-67
2021/07/13 06:13:20;;;;;;;7.72;4.38;;;19.90;92.50;;;;;;5092620;28;20020;-68
2021/07/13 06:15:48;;;;;;;4.95;4.00;;;19.90;92.40;;;;;;5091452;28;20099;-69
2021/07/13 06:18:18;;;;;;;5.18;4.30;;;20.00;92.40;;;;;;5090933;28;20051;-67
2021/07/13 06:20:44;;;;;;;5.63;4.22;;;20.00;92.40;;;;;;5091329;28;20464;-67
2021/07/13 06:23:10;;;;;;;6.47;4.45;;;20.00;92.40;;;;;;5108669;28;20073;-68
2021/07/13 06:25:36;;;;;;;9.68;4.30;;;20.00;92.40;;;;;;5091897;28;20392;-69
2021/07/13 06:28:02;;;;;;;7.25;4.20;;;20.10;92.40;;;;;;5086075;28;20419;-70
2021/07/13 06:30:28;;;;;;;4.60;4.18;;;20.10;92.30;;;;;;5091071;28;20046;-66
2021/07/13 06:32:53;;;;;;;5.32;4.07;;;20.20;92.30;;;;;;5085949;28;20028;-67
2021/07/13 06:35:19;;;;;;;7.53;3.97;;;20.20;92.30;;;;;;5089353;28;20016;-67
2021/07/13 06:37:44;;;;;;;4.47;3.88;;;20.30;92.20;;;;;;5091651;28;20039;-68
2021/07/13 06:40:11;;;;;;;3.70;3.40;;;20.40;92.20;;;;;;5092214;28;20629;-71
2021/07/13 06:42:37;;;;;;;4.88;3.95;;;20.50;92.10;;;;;;5092408;28;20392;-67
2021/07/13 06:45:04;;;;;;;5.50;3.28;;;20.60;92.10;;;;;;5066265;28;20028;-67
2021/07/13 06:47:29;;;;;;;6.47;3.58;;;20.60;92.00;;;;;;5082395;28;20028;-67
2021/07/13 06:49:55;;;;;;;4.32;3.55;;;20.60;92.00;;;;;;5091394;28;20020;-68
2021/07/13 06:52:20;;;;;;;5.10;3.45;;;20.70;91.90;;;;;;5090520;28;20063;-69
2021/07/13 06:54:46;;;;;;;4.28;3.70;;;20.80;91.70;;;;;;5090858;28;20403;-69
2021/07/13 06:57:12;;;;;;;5.82;3.47;;;20.70;91.50;;;;;;5073160;28;20035;-66
2021/07/13 06:59:38;;;;;;;3.92;3.55;;;20.70;91.50;;;;;;5091617;28;20062;-67
2021/07/13 07:02:04;;;;;;;4.07;3.67;;;20.70;91.40;;;;;;5074805;28;20054;-67
2021/07/13 07:04:30;;;;;;;5.10;3.60;;;20.80;91.30;;;;;;5081573;28;20028;-67
2021/07/13 07:06:55;;;;;;;5.57;4.10;;;20.80;91.30;;;;;;5088927;28;20479;-68
2021/07/13 07:09:21;;;;;;;4.40;4.00;;;20.90;91.20;;;;;;5063051;28;20436;-67
2021/07/13 07:11:46;;;;;;;5.47;4.20;;;21.00;91.20;;;;;;5091340;28;20058;-67
2021/07/13 07:14:12;;;;;;;11.07;9.07;;;21.00;91.20;;;;;;5090506;28;20024;-67
2021/07/13 07:16:38;;;;;;;3.72;3.42;;;21.00;91.20;;;;;;5077904;28;20542;-68
2021/07/13 07:19:03;;;;;;;4.82;3.88;;;21.10;91.10;;;;;;5091269;28;20039;-69
2021/07/13 07:21:29;;;;;;;5.03;4.18;;;21.00;91.00;;;;;;5090960;28;20028;-69
2021/07/13 07:23:55;;;;;;;4.88;3.45;;;21.00;90.90;;;;;;5090701;28;20177;-67
2021/07/13 07:26:20;;;;;;;4.00;3.63;;;21.00;90.90;;;;;;5088794;28;20502;-68
2021/07/13 07:28:46;;;;;;;3.80;3.50;;;20.90;90.90;;;;;;5090610;28;20093;-67
2021/07/13 07:31:14;;;;;;;4.57;3.28;;;20.90;91.00;;;;;;5090173;28;20035;-68
2021/07/13 07:33:41;;;;;;;4.95;3.70;;;20.90;91.00;;;;;;5091265;28;20031;-67
2021/07/13 07:36:06;;;;;;;4.30;3.50;;;20.90;90.90;;;;;;5088462;28;20028;-67
2021/07/13 07:38:32;;;;;;;5.32;3.38;;;20.80;90.90;;;;;;5090692;28;20028;-67
2021/07/13 07:40:58;;;;;;;5.00;3.17;;;20.80;91.00;;;;;;5089488;28;20032;-68
2021/07/13 07:43:24;;;;;;;3.85;3.45;;;20.70;91.00;;;;;;5086058;28;20472;-70
2021/07/13 07:45:49;;;;;;;9.07;3.92;;;20.70;91.00;;;;;;5089797;28;20024;-67
2021/07/13 07:48:15;;;;;;;5.82;3.70;;;20.60;90.80;;;;;;5088273;28;20021;-67
2021/07/13 07:50:41;;;;;;;5.55;4.15;;;20.50;90.80;;;;;;5090415;28;20096;-67
2021/07/13 07:53:06;;;;;;;4.45;4.03;;;20.40;90.80;;;;;;5071549;28;20119;-68
2021/07/13 07:55:33;;;;;;;7.32;3.97;;;20.30;90.80;;;;;;5088427;28;20383;-69
2021/07/13 07:57:59;;;;;;;4.75;4.03;;;20.20;91.00;;;;;;5090529;28;20094;-68
2021/07/13 08:00:25;;;;;;;11.70;4.20;;;20.10;91.10;;;;;;5090701;28;20042;-68
2021/07/13 08:02:51;;;;;;;7.88;4.65;;;20.10;91.20;;;;;;5084813;28;20021;-67
2021/07/13 08:05:17;;;;;;;5.45;4.43;;;20.00;91.20;;;;;;5086663;28;20109;-67
2021/07/13 08:07:45;;;;;;;7.38;4.57;;;20.00;91.40;;;;;;5085308;28;20094;-68
2021/07/13 08:10:12;;;;;;;7.22;5.50;;;19.90;91.60;;;;;;5072150;28;20089;-67
2021/07/13 08:12:38;;;;;;;7.15;5.47;;;19.90;91.80;;;;;;5089499;28;20403;-67
2021/07/13 08:15:07;;;;;;;5.57;5.00;;;19.90;91.90;;;;;;5089248;28;20024;-67
2021/07/13 08:17:33;;;;;;;6.60;5.50;;;19.90;92.10;;;;;;5090047;28;20663;-66
2021/07/13 08:19:58;;;;;;;6.03;5.43;;;19.80;92.10;;;;;;5097915;22;20080;-71
2021/07/13 08:22:24;;;;;;;7.72;5.60;;;19.80;92.10;;;;;;5081994;28;20090;-69
2021/07/13 08:24:49;;;;;;;7.40;6.65;;;19.80;92.40;;;;;;5094354;28;20051;-69
2021/07/13 08:27:15;;;;;;;7.57;6.78;;;19.80;92.50;;;;;;5071826;28;20424;-70
2021/07/13 08:29:42;;;;;;;11.27;8.30;;;19.70;92.40;;;;;;5087004;28;20020;-69
2021/07/13 08:32:08;;;;;;;11.70;9.00;;;19.50;92.60;;;;;;5071725;28;20024;-70
2021/07/13 08:34:34;;;;;;;16.80;9.32;;;19.40;93.00;;;;;;5089758;28;20150;-70
2021/07/13 08:37:02;;;;;;;10.77;8.55;;;19.40;93.50;;;;;;5090484;28;20023;-70
2021/07/13 08:39:28;;;;;;;9.45;8.48;;;19.40;94.00;;;;;;5090666;28;20036;-70
2021/07/13 08:41:53;;;;;;;12.07;9.32;;;19.30;94.20;;;;;;5091715;28;20099;-70
2021/07/13 08:44:19;;;;;;;11.25;8.82;;;19.30;94.40;;;;;;5090435;28;20039;-70
2021/07/13 08:46:45;;;;;;;11.52;9.55;;;19.30;94.70;;;;;;5097196;28;20035;-70
2021/07/13 08:49:13;;;;;;;12.18;8.90;;;19.30;94.70;;;;;;5072924;28;20111;-70
2021/07/13 08:51:41;;;;;;;11.00;8.57;;;19.30;94.80;;;;;;5090200;28;20024;-70
2021/07/13 08:54:07;;;;;;;10.90;8.85;;;19.30;94.80;;;;;;5072126;28;20031;-70
2021/07/13 08:56:34;;;;;;;10.10;8.32;;;19.30;95.00;;;;;;5070309;28;20035;-70
2021/07/13 08:59:00;;;;;;;11.70;8.43;;;19.30;95.00;;;;;;5090434;28;20039;-70
2021/07/13 09:01:26;;;;;;;9.52;8.57;;;19.30;95.20;;;;;;5089102;28;20024;-70
2021/07/13 09:03:53;;;;;;;6.28;5.68;;;19.80;95.00;;;;;;5082166;28;20552;-70
2021/07/13 09:06:18;;;;;;;5.43;4.82;;;21.40;94.30;;;;;;5070971;28;20031;-70
2021/07/13 09:08:44;;;;;;;5.90;5.40;;;21.90;93.50;;;;;;5073278;28;20388;-70
2021/07/13 09:11:13;;;;;;;5.38;4.88;;;22.00;93.50;;;;;;5093853;28;20530;-70
2021/07/13 09:13:50;;;;;;;9.25;5.15;;;22.20;93.50;;;;;;5075466;28;20016;-70
2021/07/13 09:16:24;;;;;;;5.78;5.28;;;22.50;93.40;;;;;;5092820;28;20414;-70
2021/07/13 09:18:52;;;;;;;6.95;5.57;;;22.20;93.70;;;;;;5093780;28;20035;-70
2021/07/13 09:21:24;;;;;;;5.47;4.97;;;21.90;93.70;;;;;;5092946;28;20419;-70
2021/07/13 09:24:09;;;;;;;4.85;4.45;;;21.60;93.70;;;;;;5093741;28;20016;-70
2021/07/13 09:26:39;;;;;;;5.22;4.72;;;21.50;94.00;;;;;;5105114;28;20053;-73
2021/07/13 09:29:06;;;;;;;5.75;5.25;;;21.70;93.90;;;;;;5098473;28;20223;-72
2021/07/13 09:31:32;;;;;;;5.03;4.53;;;21.60;93.90;;;;;;5093418;28;20024;-73
2021/07/13 09:33:58;;;;;;;4.50;4.10;;;21.40;93.90;;;;;;5102257;28;20096;-73
2021/07/13 09:36:23;;;;;;;5.45;4.25;;;21.40;93.80;;;;;;5112366;28;20032;-72
2021/07/13 09:38:54;;;;;;;6.75;3.80;;;21.50;93.70;;;;;;5086191;28;20048;-73
2021/07/13 09:41:21;;;;;;;4.28;3.90;;;21.50;93.70;;;;;;5101740;28;20035;-73
2021/07/13 09:43:59;;;;;;;5.05;3.50;;;21.60;93.70;;;;;;5088981;28;20051;-72
2021/07/13 09:46:34;;;;;;;4.80;3.90;;;21.70;93.70;;;;;;5091744;28;20020;-73
2021/07/13 09:49:15;;;;;;;3.65;3.35;;;21.70;93.80;;;;;;5092292;28;20028;-72
2021/07/13 09:52:03;;;;;;;4.32;3.92;;;21.70;93.90;;;;;;5080855;28;20020;-72
2021/07/13 09:54:37;;;;;;;6.55;4.60;;;21.70;93.90;;;;;;5092633;28;20059;-72
2021/07/13 09:57:07;;;;;;;3.83;3.35;;;21.70;93.90;;;;;;5093097;28;20020;-72
2021/07/13 09:59:33;;;;;;;3.67;3.33;;;21.60;93.90;;;;;;5092820;28;20020;-72
2021/07/13 10:02:05;;;;;;;3.95;3.55;;;21.50;93.80;;;;;;5074893;28;20031;-72
2021/07/13 10:04:31;;;;;;;3.22;3.03;;;21.50;93.70;;;;;;5092051;28;20031;-73
2021/07/13 10:07:04;;;;;;;3.30;3.08;;;21.50;94.00;;;;;;5091778;28;20051;-73
2021/07/13 10:09:33;;;;;;;3.47;3.20;;;21.50;94.00;;;;;;5073949;28;20088;-73
2021/07/13 10:11:59;;;;;;;3.38;3.13;;;21.50;93.90;;;;;;5092538;28;20032;-73
2021/07/13 10:14:25;;;;;;;3.20;2.83;;;21.60;93.90;;;;;;5092195;28;20375;-73
2021/07/13 10:16:51;;;;;;;5.03;2.88;;;21.50;93.90;;;;;;5091808;28;20020;-73
2021/07/13 10:19:17;;;;;;;3.20;2.90;;;21.50;93.90;;;;;;5090033;28;20031;-73
2021/07/13 10:21:46;;;;;;;4.20;2.67;;;21.40;93.90;;;;;;5091914;28;20036;-72
2021/07/13 10:24:12;;;;;;;2.92;2.65;;;21.30;93.80;;;;;;5092074;28;20028;-69
2021/07/13 10:26:50;;;;;;;3.10;2.85;;;21.20;93.70;;;;;;5090959;28;20024;-70
2021/07/13 10:29:34;;;;;;;4.07;2.85;;;21.10;93.60;;;;;;5092437;28;20412;-69
2021/07/13 10:32:26;;;;;;;3.50;2.90;;;21.00;93.70;;;;;;5075972;28;20024;-69
2021/07/13 10:35:00;;;;;;;5.67;2.87;;;20.90;93.90;;;;;;5090866;28;20024;-70
2021/07/13 10:37:34;;;;;;;4.25;3.42;;;20.80;94.00;;;;;;5091376;28;20274;-69
2021/07/13 10:40:08;;;;;;;5.60;3.72;;;20.80;94.10;;;;;;5091749;28;20146;-69
2021/07/13 10:42:42;;;;;;;4.38;3.97;;;20.70;94.10;;;;;;5091442;28;20114;-69
2021/07/13 10:45:15;;;;;;;5.25;4.75;;;20.70;94.30;;;;;;5090980;28;20052;-69
2021/07/13 10:48:02;;;;;;;3.58;2.83;;;20.60;94.20;;;;;;5087459;28;20028;-69
2021/07/13 10:50:28;;;;;;;3.35;3.05;;;20.50;94.20;;;;;;5071612;28;20047;-70
2021/07/13 10:52:58;;;;;;;2.60;2.28;;;20.40;94.30;;;;;;5071828;28;20656;-70
2021/07/13 10:55:30;;;;;;;1.40;1.30;;;20.20;94.30;;;;;;5090598;28;20024;-69
2021/07/13 10:58:16;;;;;;;1.00;1.00;;;20.00;94.40;;;;;;5091545;28;20545;-70
2021/07/13 11:00:49;;;;;;;0.45;0.45;;;19.70;94.50;;;;;;5077530;28;20112;-70
2021/07/13 11:03:27;;;;;;;0.30;0.30;;;19.60;94.60;;;;;;5091748;28;20059;-69
2021/07/13 11:05:56;;;;;;;0.20;0.20;;;19.40;94.60;;;;;;5090603;28;20056;-70
2021/07/13 11:08:59;;;;;;;0.90;0.10;;;19.20;94.70;;;;;;5090945;28;20028;-69
2021/07/13 11:11:28;;;;;;;0.10;0.10;;;19.00;94.50;;;;;;5090020;28;20099;-69
2021/07/13 11:14:01;;;;;;;0.45;0.28;;;18.70;94.40;;;;;;5091313;28;20032;-69
2021/07/13 11:16:28;;;;;;;0.10;0.10;;;18.50;94.70;;;;;;5090317;28;20024;-70
2021/07/13 11:18:55;;;;;;;0.10;0.10;;;18.30;94.60;;;;;;5091327;28;20115;-70
2021/07/13 11:21:30;;;;;;;0.10;0.10;;;18.10;94.60;;;;;;5091241;28;20034;-69
2021/07/13 11:23:59;;;;;;;2.45;0.20;;;17.90;94.70;;;;;;5091223;28;20036;-69
2021/07/13 11:26:26;;;;;;;0.10;0.10;;;17.80;94.90;;;;;;5089839;28;20035;-70
2021/07/13 11:28:59;;;;;;;0.10;0.10;;;17.60;94.80;;;;;;5073252;28;20024;-70
2021/07/13 11:31:25;;;;;;;;;;;17.50;94.80;;;;;;5090743;28;20066;-69
2021/07/13 11:34:04;;;;;;;1.58;0.20;;;17.30;94.80;;;;;;5091110;28;19908;-69
2021/07/13 11:36:33;;;;;;;3.60;0.40;;;17.20;95.10;;;;;;5083624;28;20069;-69
2021/07/13 11:39:01;;;;;;;47.42;34.22;;;17.10;95.30;;;;;;5090538;28;20105;-69
2021/07/13 11:41:28;;;;;;;1.20;0.60;;;17.10;95.30;;;;;;5090604;28;20107;-70
2021/07/13 11:44:02;;;;;;;0.68;0.20;;;17.10;95.60;;;;;;5090877;28;20035;-70
2021/07/13 11:46:31;;;;;;;2.20;0.38;;;17.30;96.00;;;;;;5088718;28;20052;-70
2021/07/13 11:49:00;;;;;;;0.85;0.20;;;17.50;96.10;;;;;;5081741;28;20062;-69
2021/07/13 11:51:30;;;;;;;0.20;0.20;;;17.60;95.80;;;;;;5090504;28;20024;-69
2021/07/13 11:54:00;;;;;;;0.10;0.10;;;17.50;95.60;;;;;;5090854;28;20413;-69
2021/07/13 11:56:27;;;;;;;0.13;0.13;;;17.40;95.40;;;;;;5090045;28;20034;-69
2021/07/13 11:58:53;;;;;;;0.55;0.20;;;17.30;95.40;;;;;;5090892;28;20036;-69
2021/07/13 12:01:21;;;;;;;0.35;0.20;;;17.10;95.50;;;;;;5090922;28;20039;-69
2021/07/13 12:03:48;;;;;;;0.15;0.15;;;17.00;95.80;;;;;;5090657;28;20382;-69
2021/07/13 12:06:19;;;;;;;0.20;0.20;;;17.00;95.70;;;;;;5089319;28;20107;-69
2021/07/13 12:08:52;;;;;;;0.47;0.47;;;16.90;95.70;;;;;;5090647;28;20028;-69
2021/07/13 12:11:24;;;;;;;0.47;0.10;;;16.80;95.70;;;;;;5089921;28;20028;-69
2021/07/13 12:13:50;;;;;;;0.10;0.10;;;16.80;95.90;;;;;;5090603;28;20024;-69
2021/07/13 12:16:25;;;;;;;2.33;0.13;;;16.70;95.90;;;;;;5089305;28;20039;-69
2021/07/13 12:18:51;;;;;;;0.20;0.20;;;16.60;95.80;;;;;;5090662;28;20101;-70
2021/07/13 12:21:19;;;;;;;0.10;0.10;;;16.60;95.90;;;;;;5087875;28;20024;-70
2021/07/13 12:23:47;;;;;;;0.20;0.20;;;16.50;95.80;;;;;;5089938;28;20030;-70
2021/07/13 12:26:25;;;;;;;0.20;0.17;;;16.40;95.70;;;;;;5089062;28;20020;-71
2021/07/13 12:29:03;;;;;;;1.85;0.30;;;16.30;95.80;;;;;;5081225;28;20066;-71
2021/07/13 12:31:29;;;;;;;0.63;0.20;;;16.20;95.90;;;;;;5078574;28;20024;-70
2021/07/13 12:33:55;;;;;;;0.17;0.10;;;16.20;96.00;;;;;;5090417;28;20028;-70
2021/07/13 12:36:28;;;;;;;0.13;0.13;;;16.20;96.10;;;;;;5089049;28;20085;-70
2021/07/13 12:38:56;;;;;;;1.55;0.17;;;16.20;96.00;;;;;;5084476;28;20191;-69
2021/07/13 12:41:26;;;;;;;0.10;0.10;;;16.10;96.10;;;;;;5090163;28;20024;-70
2021/07/13 12:43:51;;;;;;;0.98;0.32;;;16.10;96.20;;;;;;5094264;28;20039;-70
2021/07/13 12:46:28;;;;;;;1.92;0.22;;;16.10;96.20;;;;;;5093309;28;20024;-70
2021/07/13 12:48:53;;;;;;;0.40;0.40;;;16.10;96.20;;;;;;5094088;28;20380;-70
2021/07/13 12:51:27;;;;;;;0.20;0.20;;;16.10;96.20;;;;;;5093772;28;20016;-70